Capt. James Anderson — WDC3584 — position and weather

sailwx.info

Track history (hours):
 
Tides and Currents Weather Stations Pressure Air Temp Water Temp Dewpoint Dewpoint Depression Visibility Wind Speed Wind Dir Waves Ship Positions

Capt. James Anderson

Owner: AEP River Operations LLC, Chesterfield, MO. More information available from US FCC via Universal Licensing System and Coast Guard Vessel Documentation Center.

Last reported at 2015-Jun-13 07:33 UTC. Time now 2015-Jul-05 12:51 UTC.
Position N 38°57' W 084°50'.
Warning: this ship's position is 22 days out of date.

Length 46 m; draft 3.5 m.

Type: Towing. MMSI: 367010580.

Date/timePositionNaut miles runAvg speedWind from/ knotsBaromVisibWave heightAir tempDewpointWater temp
2015-Jun-13 07:33N 38°57' W 084°50'7 2.4
2015-Jun-13 04:33N 39°04' W 084°53'5 4.6
2015-Jun-13 03:33N 39°07' W 084°48'4 3.9
2015-Jun-13 02:33N 39°08' W 084°44'3 3.1
2015-Jun-13 01:33N 39°06' W 084°41'1 0.5
2015-Jun-13 00:33N 39°06' W 084°40'4 4.2
2015-Jun-12 23:33N 39°05' W 084°35'4 4.0
2015-Jun-12 22:33N 39°06' W 084°30'3 3.1
2015-Jun-12 21:33N 39°06' W 084°26'4 3.8
2015-Jun-12 20:33N 39°03' W 084°23'4 4.4
2015-Jun-12 19:33N 39°00' W 084°18'5 4.7
2015-Jun-12 18:33N 38°56' W 084°16'5 4.8
2015-Jun-12 17:33N 38°51' W 084°14'4 4.0
2015-Jun-12 16:32N 38°48' W 084°11'1 1.0
2015-Jun-12 15:29N 38°48' W 084°10'2 2.0
2015-Jun-12 14:29N 38°47' W 084°08'10 4.0
2015-Jun-12 12:04N 38°46' W 083°55'3 4.3
2015-Jun-12 11:19N 38°45' W 083°51'3 4.2
2015-Jun-12 10:31N 38°42' W 083°49'8 3.7
2015-Jun-12 08:14N 38°38' W 083°40'10 3.5
2015-Jun-12 05:17N 38°40' W 083°27'4 4.4
2015-Jun-12 04:25N 38°40' W 083°23'  
2015-Jun-08 16:11N 38°42' W 083°30'19 3.3
2015-Jun-08 10:18N 38°46' W 083°54'8 4.3
2015-Jun-08 08:32N 38°46' W 084°03'5 4.6
2015-Jun-08 07:33N 38°47' W 084°09'2 1.6
2015-Jun-08 06:31N 38°48' W 084°11'3 3.3
2015-Jun-08 05:33N 38°50' W 084°14'4 3.8
2015-Jun-08 04:33N 38°54' W 084°14'4 3.8
2015-Jun-08 03:32N 38°57' W 084°17'4 3.9
2015-Jun-08 02:33N 39°01' W 084°19'4 3.8
2015-Jun-08 01:33N 39°03' W 084°23'3 3.4
2015-Jun-08 00:33N 39°05' W 084°26'3 3.0
2015-Jun-07 23:33N 39°07' W 084°29'3 3.4
2015-Jun-07 22:33N 39°06' W 084°33'4 3.9
2015-Jun-07 21:33N 39°05' W 084°38'4 4.0
2015-Jun-07 20:33N 39°07' W 084°42'3 3.3
2015-Jun-07 19:33N 39°08' W 084°46'11 3.2
2015-Jun-07 16:04N 38°57' W 084°51'  
2015-Jun-03 13:14N 38°54' W 084°50'3 3.8
2015-Jun-03 12:33N 38°56' W 084°52'6 4.7
2015-Jun-03 11:10N 39°02' W 084°53'4 4.6
2015-Jun-03 10:20N 39°06' W 084°50'4 5.3
2015-Jun-03 09:33N 39°08' W 084°46'4 4.4
2015-Jun-03 08:33N 39°06' W 084°41'  
Track history (hours):
 
Tides and Currents Weather Stations Pressure Air Temp Water Temp Dewpoint Dewpoint Depression Visibility Wind Speed Wind Dir Waves Ship Positions

Capt. James Anderson

Owner: AEP River Operations LLC, Chesterfield, MO. More information available from US FCC via Universal Licensing System and Coast Guard Vessel Documentation Center.

Last reported at 2015-Jun-13 07:33 UTC. Time now 2015-Jul-05 12:51 UTC.
Position N 38°57' W 084°50'.
Warning: this ship's position is 22 days out of date.

Length 46 m; draft 3.5 m.

Type: Towing. MMSI: 367010580.

Date/timePositionNaut miles runAvg speedWind from/ knotsBaromVisibWave heightAir tempDewpointWater temp
2015-Jun-13 07:33N 38°57' W 084°50'7 2.4
2015-Jun-13 04:33N 39°04' W 084°53'5 4.6
2015-Jun-13 03:33N 39°07' W 084°48'4 3.9
2015-Jun-13 02:33N 39°08' W 084°44'3 3.1
2015-Jun-13 01:33N 39°06' W 084°41'1 0.5
2015-Jun-13 00:33N 39°06' W 084°40'4 4.2
2015-Jun-12 23:33N 39°05' W 084°35'4 4.0
2015-Jun-12 22:33N 39°06' W 084°30'3 3.1
2015-Jun-12 21:33N 39°06' W 084°26'4 3.8
2015-Jun-12 20:33N 39°03' W 084°23'4 4.4
2015-Jun-12 19:33N 39°00' W 084°18'5 4.7
2015-Jun-12 18:33N 38°56' W 084°16'5 4.8
2015-Jun-12 17:33N 38°51' W 084°14'4 4.0
2015-Jun-12 16:32N 38°48' W 084°11'1 1.0
2015-Jun-12 15:29N 38°48' W 084°10'2 2.0
2015-Jun-12 14:29N 38°47' W 084°08'10 4.0
2015-Jun-12 12:04N 38°46' W 083°55'3 4.3
2015-Jun-12 11:19N 38°45' W 083°51'3 4.2
2015-Jun-12 10:31N 38°42' W 083°49'8 3.7
2015-Jun-12 08:14N 38°38' W 083°40'10 3.5
2015-Jun-12 05:17N 38°40' W 083°27'4 4.4
2015-Jun-12 04:25N 38°40' W 083°23'  
2015-Jun-08 16:11N 38°42' W 083°30'19 3.3
2015-Jun-08 10:18N 38°46' W 083°54'8 4.3
2015-Jun-08 08:32N 38°46' W 084°03'5 4.6
2015-Jun-08 07:33N 38°47' W 084°09'2 1.6
2015-Jun-08 06:31N 38°48' W 084°11'3 3.3
2015-Jun-08 05:33N 38°50' W 084°14'4 3.8
2015-Jun-08 04:33N 38°54' W 084°14'4 3.8
2015-Jun-08 03:32N 38°57' W 084°17'4 3.9
2015-Jun-08 02:33N 39°01' W 084°19'4 3.8
2015-Jun-08 01:33N 39°03' W 084°23'3 3.4
2015-Jun-08 00:33N 39°05' W 084°26'3 3.0
2015-Jun-07 23:33N 39°07' W 084°29'3 3.4
2015-Jun-07 22:33N 39°06' W 084°33'4 3.9
2015-Jun-07 21:33N 39°05' W 084°38'4 4.0
2015-Jun-07 20:33N 39°07' W 084°42'3 3.3
2015-Jun-07 19:33N 39°08' W 084°46'11 3.2
2015-Jun-07 16:04N 38°57' W 084°51'  
2015-Jun-03 13:14N 38°54' W 084°50'3 3.8
2015-Jun-03 12:33N 38°56' W 084°52'6 4.7
2015-Jun-03 11:10N 39°02' W 084°53'4 4.6
2015-Jun-03 10:20N 39°06' W 084°50'4 5.3
2015-Jun-03 09:33N 39°08' W 084°46'4 4.4
2015-Jun-03 08:33N 39°06' W 084°41'  

Dump ship's entire track history